ancientpoint.com alexa rank chart, ancientpoint.com alexa rank daily changes

ancientpoint.com alexa rank chart, ancientpoint.com alexa rank daily changes

ancientpoint.com
Actual rank:
967 271

RANK HISTORY

Date Rank Diff
2016/12/02 967 271 +11 565
2016/12/01 955 706 +52 621
2016/11/30 903 085 +18 929
2016/11/29 884 156 +9 814
2016/11/28 874 342 +54 799
2016/11/27 819 543 +19 289
2016/11/26 800 254 -9 390
2016/11/25 809 644 +49 774
2016/11/24 759 870 -21 871
2016/11/23 781 741 -50 565
2016/11/19 832 306 +45 071
2016/11/18 787 235 -47 800
2016/11/17 835 035 +44 764
2016/11/16 790 271 +13 447
2016/11/15 776 824 -8 922
2016/11/14 785 746 -10 635
2016/11/13 796 381 -6 768
2016/11/12 803 149 +15 236
2016/11/11 787 913 -7 151
2016/11/10 795 064 +4 867
2016/11/09 790 197 +4 192
2016/11/08 786 005 +9 664
2016/11/07 776 341 -52 170
2016/11/06 828 511 -19 459
2016/11/05 847 970 -8 501
2016/11/04 856 471 -34 953
2016/11/03 891 424 +29 739
2016/11/02 861 685 +10 782
2016/11/01 850 903 -14 450
2016/10/31 865 353 -29 758
2016/10/30 895 111 -21 215
2016/10/29 916 326 +4 898
2016/10/28 911 428 -29 432
2016/10/27 940 860 -26 803
2016/10/26 967 663 +5 046
2016/10/25 962 617 +65 175
2016/10/18 897 442 +25 617
2016/10/17 871 825 -58 888
2016/10/16 930 713 -66 854
2016/10/15 997 567 +361 767
2016/10/14 635 800 +11 874
2016/10/13 623 926 +15 389
2016/10/12 608 537 +27 891
2016/10/11 580 646 +11 297
2016/10/10 569 349 +9 247
2016/10/09 560 102 +14 960
2016/10/08 545 142 -349 559
2016/10/07 894 701 +298 292
2016/10/06 596 409 -237 736
2016/10/05 834 145 +21 221
2016/10/04 812 924

WIDGET FOR YOUR SITE

DOMAINS WITH THE NEAREST RANK

Domain Rank
pomogispine.com 967 266
kpitalrisk.free.fr 967 267
gospaces.in 967 268
firstnewyork.org 967 269
bpm.bz 967 270
ancientpoint.com 967 271
misterbay.co.kr 967 272
unternehmenscup.de 967 273
rockymountainhardware.com 967 274
kenwoodcommunications.co.uk 967 275
commaster.net 967 276

DOMAINS WITH THE NEAREST RANK BY TLD .com

Domain Rank
wakeratings.com 967 259
marcdylan.com 967 262
tor999.com 967 264
daasee.com 967 265
pomogispine.com 967 266
ancientpoint.com 967 271
rockymountainhardware.com 967 274
sekairo.com 967 277
qunchong.com 967 278
dabao123.com 967 279
expohour.com 967 280